sensor_id;sensor_type;location;lat;lon;timestamp;P1;durP1;ratioP1;P2;durP2;ratioP2
53108;SDS011;39007;53.090;6.074;2023-08-06T00:00:28;8.25;;;6.78;;
53108;SDS011;39007;53.090;6.074;2023-08-06T00:02:54;8.77;;;6.68;;
53108;SDS011;39007;53.090;6.074;2023-08-06T00:05:20;8.07;;;6.70;;
53108;SDS011;39007;53.090;6.074;2023-08-06T00:07:47;9.40;;;6.85;;
53108;SDS011;39007;53.090;6.074;2023-08-06T00:10:13;10.38;;;7.13;;
53108;SDS011;39007;53.090;6.074;2023-08-06T00:12:39;10.57;;;6.90;;
53108;SDS011;39007;53.090;6.074;2023-08-06T00:15:05;8.68;;;7.03;;
53108;SDS011;39007;53.090;6.074;2023-08-06T00:17:31;10.80;;;7.13;;
53108;SDS011;39007;53.090;6.074;2023-08-06T00:19:58;8.88;;;6.93;;
53108;SDS011;39007;53.090;6.074;2023-08-06T00:22:29;10.07;;;7.50;;
53108;SDS011;39007;53.090;6.074;2023-08-06T00:24:55;9.52;;;7.45;;
53108;SDS011;39007;53.090;6.074;2023-08-06T00:27:22;9.55;;;7.32;;
53108;SDS011;39007;53.090;6.074;2023-08-06T00:29:49;10.15;;;7.57;;
53108;SDS011;39007;53.090;6.074;2023-08-06T00:32:15;10.90;;;8.02;;
53108;SDS011;39007;53.090;6.074;2023-08-06T00:34:41;12.20;;;8.18;;
53108;SDS011;39007;53.090;6.074;2023-08-06T00:37:07;9.70;;;8.15;;
53108;SDS011;39007;53.090;6.074;2023-08-06T00:39:33;9.07;;;7.78;;
53108;SDS011;39007;53.090;6.074;2023-08-06T00:41:59;10.52;;;8.15;;
53108;SDS011;39007;53.090;6.074;2023-08-06T00:44:25;10.52;;;8.68;;
53108;SDS011;39007;53.090;6.074;2023-08-06T00:46:52;10.75;;;8.48;;
53108;SDS011;39007;53.090;6.074;2023-08-06T00:49:18;11.43;;;8.65;;
53108;SDS011;39007;53.090;6.074;2023-08-06T00:51:44;11.30;;;8.55;;
53108;SDS011;39007;53.090;6.074;2023-08-06T00:54:10;12.07;;;9.55;;
53108;SDS011;39007;53.090;6.074;2023-08-06T00:56:36;11.13;;;8.43;;
53108;SDS011;39007;53.090;6.074;2023-08-06T00:59:03;11.43;;;8.40;;
53108;SDS011;39007;53.090;6.074;2023-08-06T01:01:29;11.50;;;9.55;;
53108;SDS011;39007;53.090;6.074;2023-08-06T01:03:55;11.50;;;9.32;;
53108;SDS011;39007;53.090;6.074;2023-08-06T01:06:23;15.10;;;10.20;;
53108;SDS011;39007;53.090;6.074;2023-08-06T01:08:57;12.25;;;9.73;;
53108;SDS011;39007;53.090;6.074;2023-08-06T01:11:38;11.68;;;10.32;;
53108;SDS011;39007;53.090;6.074;2023-08-06T01:14:57;12.63;;;10.32;;
53108;SDS011;39007;53.090;6.074;2023-08-06T01:16:55;13.27;;;10.85;;
53108;SDS011;39007;53.090;6.074;2023-08-06T01:19:22;13.57;;;10.80;;
53108;SDS011;39007;53.090;6.074;2023-08-06T01:21:48;11.68;;;9.88;;
53108;SDS011;39007;53.090;6.074;2023-08-06T01:24:14;14.45;;;11.00;;
53108;SDS011;39007;53.090;6.074;2023-08-06T01:26:51;14.50;;;11.63;;
53108;SDS011;39007;53.090;6.074;2023-08-06T01:31:48;15.20;;;11.85;;
53108;SDS011;39007;53.090;6.074;2023-08-06T01:34:17;14.13;;;11.35;;
53108;SDS011;39007;53.090;6.074;2023-08-06T01:36:43;13.32;;;11.98;;
53108;SDS011;39007;53.090;6.074;2023-08-06T01:39:09;14.38;;;11.60;;
53108;SDS011;39007;53.090;6.074;2023-08-06T01:41:35;13.70;;;11.65;;
53108;SDS011;39007;53.090;6.074;2023-08-06T01:44:02;14.80;;;13.02;;
53108;SDS011;39007;53.090;6.074;2023-08-06T01:46:28;13.30;;;11.98;;
53108;SDS011;39007;53.090;6.074;2023-08-06T01:48:54;15.80;;;13.20;;
53108;SDS011;39007;53.090;6.074;2023-08-06T01:51:20;16.45;;;13.98;;
53108;SDS011;39007;53.090;6.074;2023-08-06T01:53:46;16.77;;;14.75;;
53108;SDS011;39007;53.090;6.074;2023-08-06T01:56:12;15.32;;;13.73;;
53108;SDS011;39007;53.090;6.074;2023-08-06T01:58:38;16.63;;;14.80;;
53108;SDS011;39007;53.090;6.074;2023-08-06T02:01:04;15.88;;;14.20;;
53108;SDS011;39007;53.090;6.074;2023-08-06T02:03:30;17.10;;;14.63;;
53108;SDS011;39007;53.090;6.074;2023-08-06T02:05:56;18.58;;;14.68;;
53108;SDS011;39007;53.090;6.074;2023-08-06T02:08:22;16.52;;;13.85;;
53108;SDS011;39007;53.090;6.074;2023-08-06T02:10:48;17.65;;;14.77;;
53108;SDS011;39007;53.090;6.074;2023-08-06T02:13:14;14.95;;;13.02;;
53108;SDS011;39007;53.090;6.074;2023-08-06T02:15:44;18.85;;;14.18;;
53108;SDS011;39007;53.090;6.074;2023-08-06T02:18:12;17.17;;;13.95;;
53108;SDS011;39007;53.090;6.074;2023-08-06T02:20:38;18.98;;;15.13;;
53108;SDS011;39007;53.090;6.074;2023-08-06T02:23:04;17.35;;;12.88;;
53108;SDS011;39007;53.090;6.074;2023-08-06T02:25:30;14.13;;;12.50;;
53108;SDS011;39007;53.090;6.074;2023-08-06T02:27:56;15.23;;;13.38;;
53108;SDS011;39007;53.090;6.074;2023-08-06T02:30:22;15.70;;;12.95;;
53108;SDS011;39007;53.090;6.074;2023-08-06T02:32:48;15.95;;;13.27;;
53108;SDS011;39007;53.090;6.074;2023-08-06T02:35:14;16.05;;;13.02;;
53108;SDS011;39007;53.090;6.074;2023-08-06T02:37:40;19.77;;;13.02;;
53108;SDS011;39007;53.090;6.074;2023-08-06T02:40:07;15.48;;;12.70;;
53108;SDS011;39007;53.090;6.074;2023-08-06T02:42:33;16.40;;;13.43;;
53108;SDS011;39007;53.090;6.074;2023-08-06T02:44:59;16.60;;;12.27;;
53108;SDS011;39007;53.090;6.074;2023-08-06T02:47:25;13.88;;;12.40;;
53108;SDS011;39007;53.090;6.074;2023-08-06T02:49:51;16.65;;;12.82;;
53108;SDS011;39007;53.090;6.074;2023-08-06T02:52:18;13.45;;;11.93;;
53108;SDS011;39007;53.090;6.074;2023-08-06T02:54:44;14.25;;;12.27;;
53108;SDS011;39007;53.090;6.074;2023-08-06T02:57:10;15.88;;;13.48;;
53108;SDS011;39007;53.090;6.074;2023-08-06T02:59:36;14.80;;;12.15;;
53108;SDS011;39007;53.090;6.074;2023-08-06T03:02:02;14.60;;;12.55;;
53108;SDS011;39007;53.090;6.074;2023-08-06T03:04:28;15.05;;;11.50;;
53108;SDS011;39007;53.090;6.074;2023-08-06T03:06:54;15.48;;;11.52;;
53108;SDS011;39007;53.090;6.074;2023-08-06T03:09:20;15.82;;;12.15;;
53108;SDS011;39007;53.090;6.074;2023-08-06T03:11:46;14.35;;;11.15;;
53108;SDS011;39007;53.090;6.074;2023-08-06T03:14:12;13.85;;;11.90;;
53108;SDS011;39007;53.090;6.074;2023-08-06T03:16:38;15.15;;;11.02;;
53108;SDS011;39007;53.090;6.074;2023-08-06T03:19:04;15.30;;;12.40;;
53108;SDS011;39007;53.090;6.074;2023-08-06T03:21:31;15.68;;;11.88;;
53108;SDS011;39007;53.090;6.074;2023-08-06T03:23:57;14.85;;;12.25;;
53108;SDS011;39007;53.090;6.074;2023-08-06T03:26:23;14.45;;;11.75;;
53108;SDS011;39007;53.090;6.074;2023-08-06T03:28:49;17.30;;;12.13;;
53108;SDS011;39007;53.090;6.074;2023-08-06T03:31:15;14.23;;;12.05;;
53108;SDS011;39007;53.090;6.074;2023-08-06T03:33:41;14.80;;;12.10;;
53108;SDS011;39007;53.090;6.074;2023-08-06T03:36:07;15.25;;;12.30;;
53108;SDS011;39007;53.090;6.074;2023-08-06T03:38:33;13.57;;;11.82;;
53108;SDS011;39007;53.090;6.074;2023-08-06T03:40:59;13.43;;;12.02;;
53108;SDS011;39007;53.090;6.074;2023-08-06T03:43:25;14.50;;;11.93;;
53108;SDS011;39007;53.090;6.074;2023-08-06T03:45:51;12.70;;;11.32;;
53108;SDS011;39007;53.090;6.074;2023-08-06T03:48:17;15.18;;;12.45;;
53108;SDS011;39007;53.090;6.074;2023-08-06T03:50:43;13.68;;;11.20;;
53108;SDS011;39007;53.090;6.074;2023-08-06T03:53:09;15.50;;;12.25;;
53108;SDS011;39007;53.090;6.074;2023-08-06T03:55:35;12.90;;;11.57;;
53108;SDS011;39007;53.090;6.074;2023-08-06T03:58:01;17.05;;;12.93;;
53108;SDS011;39007;53.090;6.074;2023-08-06T04:00:27;13.07;;;11.77;;
53108;SDS011;39007;53.090;6.074;2023-08-06T04:02:53;16.92;;;12.73;;
53108;SDS011;39007;53.090;6.074;2023-08-06T04:05:19;16.63;;;12.43;;
53108;SDS011;39007;53.090;6.074;2023-08-06T04:07:45;14.35;;;12.20;;
53108;SDS011;39007;53.090;6.074;2023-08-06T04:10:11;14.60;;;11.95;;
53108;SDS011;39007;53.090;6.074;2023-08-06T04:12:37;16.27;;;12.73;;
53108;SDS011;39007;53.090;6.074;2023-08-06T04:15:04;16.48;;;13.25;;
53108;SDS011;39007;53.090;6.074;2023-08-06T04:17:30;18.27;;;13.05;;
53108;SDS011;39007;53.090;6.074;2023-08-06T04:19:57;14.75;;;12.10;;
53108;SDS011;39007;53.090;6.074;2023-08-06T04:22:24;13.63;;;12.15;;
53108;SDS011;39007;53.090;6.074;2023-08-06T04:24:50;15.85;;;12.85;;
53108;SDS011;39007;53.090;6.074;2023-08-06T04:27:17;15.35;;;12.63;;
53108;SDS011;39007;53.090;6.074;2023-08-06T04:29:44;15.40;;;12.85;;
53108;SDS011;39007;53.090;6.074;2023-08-06T04:32:10;14.15;;;12.68;;
53108;SDS011;39007;53.090;6.074;2023-08-06T04:34:36;14.18;;;12.75;;
53108;SDS011;39007;53.090;6.074;2023-08-06T04:37:03;14.25;;;12.68;;
53108;SDS011;39007;53.090;6.074;2023-08-06T04:39:29;14.35;;;12.75;;
53108;SDS011;39007;53.090;6.074;2023-08-06T04:41:55;16.02;;;13.55;;
53108;SDS011;39007;53.090;6.074;2023-08-06T04:44:22;14.82;;;12.48;;
53108;SDS011;39007;53.090;6.074;2023-08-06T04:46:49;15.82;;;13.02;;
53108;SDS011;39007;53.090;6.074;2023-08-06T04:49:15;14.52;;;12.90;;
53108;SDS011;39007;53.090;6.074;2023-08-06T04:51:41;15.48;;;12.65;;
53108;SDS011;39007;53.090;6.074;2023-08-06T04:54:07;18.02;;;14.27;;
53108;SDS011;39007;53.090;6.074;2023-08-06T04:56:33;14.10;;;12.60;;
53108;SDS011;39007;53.090;6.074;2023-08-06T04:58:59;14.20;;;12.70;;
53108;SDS011;39007;53.090;6.074;2023-08-06T05:01:25;14.43;;;12.10;;
53108;SDS011;39007;53.090;6.074;2023-08-06T05:03:51;16.73;;;13.27;;
53108;SDS011;39007;53.090;6.074;2023-08-06T05:06:17;14.40;;;12.85;;
53108;SDS011;39007;53.090;6.074;2023-08-06T05:08:43;16.58;;;12.75;;
53108;SDS011;39007;53.090;6.074;2023-08-06T05:11:09;15.95;;;13.02;;
53108;SDS011;39007;53.090;6.074;2023-08-06T05:13:35;14.32;;;12.75;;
53108;SDS011;39007;53.090;6.074;2023-08-06T05:16:01;15.85;;;13.32;;
53108;SDS011;39007;53.090;6.074;2023-08-06T05:18:28;19.35;;;12.80;;
53108;SDS011;39007;53.090;6.074;2023-08-06T05:20:55;15.10;;;13.20;;
53108;SDS011;39007;53.090;6.074;2023-08-06T05:23:22;15.25;;;12.45;;
53108;SDS011;39007;53.090;6.074;2023-08-06T05:25:48;15.98;;;12.50;;
53108;SDS011;39007;53.090;6.074;2023-08-06T05:28:14;15.63;;;13.50;;
53108;SDS011;39007;53.090;6.074;2023-08-06T05:30:40;16.60;;;12.57;;
53108;SDS011;39007;53.090;6.074;2023-08-06T05:33:06;15.52;;;12.75;;
53108;SDS011;39007;53.090;6.074;2023-08-06T05:35:32;14.73;;;12.77;;
53108;SDS011;39007;53.090;6.074;2023-08-06T05:37:58;15.38;;;12.32;;
53108;SDS011;39007;53.090;6.074;2023-08-06T05:40:24;13.60;;;12.02;;
53108;SDS011;39007;53.090;6.074;2023-08-06T05:42:52;12.90;;;11.55;;
53108;SDS011;39007;53.090;6.074;2023-08-06T05:45:18;13.85;;;12.38;;
53108;SDS011;39007;53.090;6.074;2023-08-06T05:47:44;15.70;;;12.77;;
53108;SDS011;39007;53.090;6.074;2023-08-06T05:50:10;14.60;;;12.38;;
53108;SDS011;39007;53.090;6.074;2023-08-06T05:52:36;17.27;;;13.00;;
53108;SDS011;39007;53.090;6.074;2023-08-06T05:55:02;13.80;;;12.38;;
53108;SDS011;39007;53.090;6.074;2023-08-06T05:57:28;16.83;;;13.00;;
53108;SDS011;39007;53.090;6.074;2023-08-06T05:59:55;17.02;;;12.35;;
53108;SDS011;39007;53.090;6.074;2023-08-06T06:02:21;14.85;;;12.10;;
53108;SDS011;39007;53.090;6.074;2023-08-06T06:04:47;18.48;;;12.82;;
53108;SDS011;39007;53.090;6.074;2023-08-06T06:07:13;17.17;;;12.77;;
53108;SDS011;39007;53.090;6.074;2023-08-06T06:09:39;13.25;;;11.60;;
53108;SDS011;39007;53.090;6.074;2023-08-06T06:12:06;15.90;;;12.43;;
53108;SDS011;39007;53.090;6.074;2023-08-06T06:14:32;18.67;;;13.15;;
53108;SDS011;39007;53.090;6.074;2023-08-06T06:16:58;13.65;;;12.02;;
53108;SDS011;39007;53.090;6.074;2023-08-06T06:19:25;15.60;;;12.52;;
53108;SDS011;39007;53.090;6.074;2023-08-06T06:21:51;15.13;;;13.25;;
53108;SDS011;39007;53.090;6.074;2023-08-06T06:24:18;17.60;;;13.52;;
53108;SDS011;39007;53.090;6.074;2023-08-06T06:26:44;15.30;;;12.70;;
53108;SDS011;39007;53.090;6.074;2023-08-06T06:29:10;16.33;;;12.98;;
53108;SDS011;39007;53.090;6.074;2023-08-06T06:31:36;13.90;;;12.38;;
53108;SDS011;39007;53.090;6.074;2023-08-06T06:34:02;16.20;;;13.35;;
53108;SDS011;39007;53.090;6.074;2023-08-06T06:36:28;14.15;;;12.63;;
53108;SDS011;39007;53.090;6.074;2023-08-06T06:38:54;13.77;;;12.40;;
53108;SDS011;39007;53.090;6.074;2023-08-06T06:41:20;15.52;;;13.00;;
53108;SDS011;39007;53.090;6.074;2023-08-06T06:43:46;15.32;;;13.07;;
53108;SDS011;39007;53.090;6.074;2023-08-06T06:46:12;15.07;;;11.75;;
53108;SDS011;39007;53.090;6.074;2023-08-06T06:48:38;16.15;;;12.95;;
53108;SDS011;39007;53.090;6.074;2023-08-06T06:51:04;14.70;;;12.38;;
53108;SDS011;39007;53.090;6.074;2023-08-06T06:53:30;17.65;;;11.23;;
53108;SDS011;39007;53.090;6.074;2023-08-06T06:56:01;13.45;;;11.02;;
53108;SDS011;39007;53.090;6.074;2023-08-06T06:58:27;14.40;;;11.15;;
53108;SDS011;39007;53.090;6.074;2023-08-06T07:00:53;13.23;;;10.23;;
53108;SDS011;39007;53.090;6.074;2023-08-06T07:03:20;14.80;;;11.43;;
53108;SDS011;39007;53.090;6.074;2023-08-06T07:05:46;13.25;;;10.93;;
53108;SDS011;39007;53.090;6.074;2023-08-06T07:08:12;12.52;;;9.73;;
53108;SDS011;39007;53.090;6.074;2023-08-06T07:10:38;11.80;;;10.35;;
53108;SDS011;39007;53.090;6.074;2023-08-06T07:13:04;12.15;;;10.32;;
53108;SDS011;39007;53.090;6.074;2023-08-06T07:15:30;12.43;;;9.95;;
53108;SDS011;39007;53.090;6.074;2023-08-06T07:17:56;10.45;;;9.23;;
53108;SDS011;39007;53.090;6.074;2023-08-06T07:20:22;12.05;;;9.40;;
53108;SDS011;39007;53.090;6.074;2023-08-06T07:22:48;12.40;;;9.43;;
53108;SDS011;39007;53.090;6.074;2023-08-06T07:25:15;10.68;;;8.52;;
53108;SDS011;39007;53.090;6.074;2023-08-06T07:27:41;10.82;;;8.13;;
53108;SDS011;39007;53.090;6.074;2023-08-06T07:30:07;11.05;;;9.38;;
53108;SDS011;39007;53.090;6.074;2023-08-06T07:32:34;9.82;;;8.77;;
53108;SDS011;39007;53.090;6.074;2023-08-06T07:35:00;14.30;;;9.00;;
53108;SDS011;39007;53.090;6.074;2023-08-06T07:37:27;10.15;;;8.75;;
53108;SDS011;39007;53.090;6.074;2023-08-06T07:39:56;10.25;;;8.23;;
53108;SDS011;39007;53.090;6.074;2023-08-06T07:42:23;9.63;;;7.70;;
53108;SDS011;39007;53.090;6.074;2023-08-06T07:44:55;10.98;;;8.75;;
53108;SDS011;39007;53.090;6.074;2023-08-06T07:47:22;9.55;;;8.48;;
53108;SDS011;39007;53.090;6.074;2023-08-06T07:49:48;10.40;;;8.82;;
53108;SDS011;39007;53.090;6.074;2023-08-06T07:52:14;11.38;;;8.63;;
53108;SDS011;39007;53.090;6.074;2023-08-06T07:54:40;16.38;;;14.48;;
53108;SDS011;39007;53.090;6.074;2023-08-06T07:57:07;11.95;;;10.55;;
53108;SDS011;39007;53.090;6.074;2023-08-06T07:59:33;13.00;;;10.68;;
53108;SDS011;39007;53.090;6.074;2023-08-06T08:02:00;12.05;;;8.15;;
53108;SDS011;39007;53.090;6.074;2023-08-06T08:04:26;13.00;;;7.90;;
53108;SDS011;39007;53.090;6.074;2023-08-06T08:06:52;13.15;;;7.43;;
53108;SDS011;39007;53.090;6.074;2023-08-06T08:09:18;13.20;;;7.53;;
53108;SDS011;39007;53.090;6.074;2023-08-06T08:11:44;10.93;;;7.00;;
53108;SDS011;39007;53.090;6.074;2023-08-06T08:14:10;9.02;;;7.70;;
53108;SDS011;39007;53.090;6.074;2023-08-06T08:16:36;9.25;;;6.88;;
53108;SDS011;39007;53.090;6.074;2023-08-06T08:19:02;9.98;;;6.70;;
53108;SDS011;39007;53.090;6.074;2023-08-06T08:21:29;10.05;;;6.28;;
53108;SDS011;39007;53.090;6.074;2023-08-06T08:23:55;7.28;;;5.93;;
53108;SDS011;39007;53.090;6.074;2023-08-06T08:26:21;7.60;;;6.15;;
53108;SDS011;39007;53.090;6.074;2023-08-06T08:28:48;7.95;;;5.95;;
53108;SDS011;39007;53.090;6.074;2023-08-06T08:31:14;9.20;;;6.25;;
53108;SDS011;39007;53.090;6.074;2023-08-06T08:33:41;7.93;;;5.95;;
53108;SDS011;39007;53.090;6.074;2023-08-06T08:36:07;8.32;;;6.03;;
53108;SDS011;39007;53.090;6.074;2023-08-06T08:38:35;9.38;;;5.95;;
53108;SDS011;39007;53.090;6.074;2023-08-06T08:41:01;7.45;;;5.60;;
53108;SDS011;39007;53.090;6.074;2023-08-06T08:43:27;7.13;;;5.10;;
53108;SDS011;39007;53.090;6.074;2023-08-06T08:45:53;10.57;;;5.80;;
53108;SDS011;39007;53.090;6.074;2023-08-06T08:48:21;7.20;;;5.45;;
53108;SDS011;39007;53.090;6.074;2023-08-06T08:50:48;6.93;;;5.35;;
53108;SDS011;39007;53.090;6.074;2023-08-06T08:53:15;7.28;;;5.40;;
53108;SDS011;39007;53.090;6.074;2023-08-06T08:55:42;26.65;;;21.58;;
53108;SDS011;39007;53.090;6.074;2023-08-06T08:58:08;10.77;;;8.82;;
53108;SDS011;39007;53.090;6.074;2023-08-06T09:00:34;6.88;;;5.70;;
53108;SDS011;39007;53.090;6.074;2023-08-06T09:03:01;8.00;;;5.47;;
53108;SDS011;39007;53.090;6.074;2023-08-06T09:05:28;6.78;;;4.85;;
53108;SDS011;39007;53.090;6.074;2023-08-06T09:07:56;9.55;;;5.05;;
53108;SDS011;39007;53.090;6.074;2023-08-06T09:10:23;6.35;;;5.25;;
53108;SDS011;39007;53.090;6.074;2023-08-06T09:12:50;6.43;;;5.05;;
53108;SDS011;39007;53.090;6.074;2023-08-06T09:15:18;6.18;;;4.70;;
53108;SDS011;39007;53.090;6.074;2023-08-06T09:17:44;13.80;;;5.50;;
53108;SDS011;39007;53.090;6.074;2023-08-06T09:20:11;8.20;;;5.57;;
53108;SDS011;39007;53.090;6.074;2023-08-06T09:22:37;9.32;;;6.05;;
53108;SDS011;39007;53.090;6.074;2023-08-06T09:25:04;8.68;;;6.35;;
53108;SDS011;39007;53.090;6.074;2023-08-06T09:27:34;9.07;;;5.03;;
53108;SDS011;39007;53.090;6.074;2023-08-06T09:30:01;6.32;;;4.80;;
53108;SDS011;39007;53.090;6.074;2023-08-06T09:32:41;7.22;;;4.22;;
53108;SDS011;39007;53.090;6.074;2023-08-06T09:35:13;7.90;;;4.88;;
53108;SDS011;39007;53.090;6.074;2023-08-06T09:37:41;5.43;;;3.50;;
53108;SDS011;39007;53.090;6.074;2023-08-06T09:42:52;6.40;;;3.47;;
53108;SDS011;39007;53.090;6.074;2023-08-06T09:45:18;4.95;;;2.95;;
53108;SDS011;39007;53.090;6.074;2023-08-06T09:47:44;4.95;;;3.15;;
53108;SDS011;39007;53.090;6.074;2023-08-06T09:50:20;6.30;;;3.20;;
53108;SDS011;39007;53.090;6.074;2023-08-06T09:57:42;6.82;;;3.65;;
53108;SDS011;39007;53.090;6.074;2023-08-06T10:00:09;9.63;;;3.10;;
53108;SDS011;39007;53.090;6.074;2023-08-06T10:02:37;4.70;;;2.83;;
53108;SDS011;39007;53.090;6.074;2023-08-06T10:05:04;5.47;;;2.88;;
53108;SDS011;39007;53.090;6.074;2023-08-06T10:07:31;4.95;;;2.90;;
53108;SDS011;39007;53.090;6.074;2023-08-06T10:09:58;6.20;;;2.83;;
53108;SDS011;39007;53.090;6.074;2023-08-06T10:12:24;5.13;;;2.58;;
53108;SDS011;39007;53.090;6.074;2023-08-06T10:14:52;5.35;;;2.65;;
53108;SDS011;39007;53.090;6.074;2023-08-06T10:17:20;5.38;;;2.55;;
53108;SDS011;39007;53.090;6.074;2023-08-06T10:19:47;5.60;;;2.40;;
53108;SDS011;39007;53.090;6.074;2023-08-06T10:22:14;6.78;;;2.70;;
53108;SDS011;39007;53.090;6.074;2023-08-06T10:27:20;4.55;;;2.42;;
53108;SDS011;39007;53.090;6.074;2023-08-06T10:29:47;5.20;;;2.50;;
53108;SDS011;39007;53.090;6.074;2023-08-06T10:32:14;4.20;;;2.38;;
53108;SDS011;39007;53.090;6.074;2023-08-06T10:34:53;5.05;;;2.47;;
53108;SDS011;39007;53.090;6.074;2023-08-06T10:37:20;6.22;;;2.33;;
53108;SDS011;39007;53.090;6.074;2023-08-06T10:39:48;6.45;;;2.45;;
53108;SDS011;39007;53.090;6.074;2023-08-06T10:42:28;3.95;;;2.13;;
53108;SDS011;39007;53.090;6.074;2023-08-06T10:47:40;4.47;;;2.28;;
53108;SDS011;39007;53.090;6.074;2023-08-06T10:50:07;5.68;;;2.20;;
53108;SDS011;39007;53.090;6.074;2023-08-06T10:52:34;4.78;;;2.25;;
53108;SDS011;39007;53.090;6.074;2023-08-06T10:55:00;5.32;;;2.13;;
53108;SDS011;39007;53.090;6.074;2023-08-06T10:57:26;3.88;;;2.05;;
53108;SDS011;39007;53.090;6.074;2023-08-06T10:59:52;3.63;;;2.15;;
53108;SDS011;39007;53.090;6.074;2023-08-06T11:02:18;4.10;;;2.10;;
53108;SDS011;39007;53.090;6.074;2023-08-06T11:04:44;4.25;;;1.92;;
53108;SDS011;39007;53.090;6.074;2023-08-06T11:07:10;4.82;;;2.10;;
53108;SDS011;39007;53.090;6.074;2023-08-06T11:09:37;3.33;;;1.90;;
53108;SDS011;39007;53.090;6.074;2023-08-06T11:12:05;5.65;;;2.38;;
53108;SDS011;39007;53.090;6.074;2023-08-06T11:14:32;5.05;;;1.92;;
53108;SDS011;39007;53.090;6.074;2023-08-06T11:16:58;4.65;;;2.17;;
53108;SDS011;39007;53.090;6.074;2023-08-06T11:19:24;5.90;;;2.03;;
53108;SDS011;39007;53.090;6.074;2023-08-06T11:21:51;5.30;;;2.10;;
53108;SDS011;39007;53.090;6.074;2023-08-06T11:24:17;6.03;;;2.25;;
53108;SDS011;39007;53.090;6.074;2023-08-06T11:26:43;6.53;;;2.53;;
53108;SDS011;39007;53.090;6.074;2023-08-06T11:29:09;6.22;;;2.17;;
53108;SDS011;39007;53.090;6.074;2023-08-06T11:31:36;5.05;;;2.20;;
53108;SDS011;39007;53.090;6.074;2023-08-06T11:34:02;5.53;;;2.20;;
53108;SDS011;39007;53.090;6.074;2023-08-06T11:36:31;5.40;;;2.20;;
53108;SDS011;39007;53.090;6.074;2023-08-06T11:38:58;4.32;;;2.25;;
53108;SDS011;39007;53.090;6.074;2023-08-06T11:41:24;5.47;;;2.70;;
53108;SDS011;39007;53.090;6.074;2023-08-06T11:43:51;5.75;;;2.70;;
53108;SDS011;39007;53.090;6.074;2023-08-06T11:46:17;5.18;;;2.40;;
53108;SDS011;39007;53.090;6.074;2023-08-06T11:48:53;7.63;;;2.70;;
53108;SDS011;39007;53.090;6.074;2023-08-06T11:51:22;5.43;;;2.78;;
53108;SDS011;39007;53.090;6.074;2023-08-06T11:53:49;6.38;;;3.20;;
53108;SDS011;39007;53.090;6.074;2023-08-06T11:56:15;5.38;;;2.80;;
53108;SDS011;39007;53.090;6.074;2023-08-06T11:58:42;8.07;;;2.85;;
53108;SDS011;39007;53.090;6.074;2023-08-06T12:01:08;4.88;;;2.70;;
53108;SDS011;39007;53.090;6.074;2023-08-06T12:03:40;7.20;;;2.50;;
53108;SDS011;39007;53.090;6.074;2023-08-06T12:06:06;5.18;;;2.60;;
53108;SDS011;39007;53.090;6.074;2023-08-06T12:08:32;5.38;;;2.30;;
53108;SDS011;39007;53.090;6.074;2023-08-06T12:10:59;5.68;;;2.53;;
53108;SDS011;39007;53.090;6.074;2023-08-06T12:13:25;5.60;;;2.40;;
53108;SDS011;39007;53.090;6.074;2023-08-06T12:15:51;7.10;;;2.60;;
53108;SDS011;39007;53.090;6.074;2023-08-06T12:18:18;5.38;;;2.05;;
53108;SDS011;39007;53.090;6.074;2023-08-06T12:20:45;6.68;;;2.35;;
53108;SDS011;39007;53.090;6.074;2023-08-06T12:23:11;5.15;;;2.45;;
53108;SDS011;39007;53.090;6.074;2023-08-06T12:25:40;8.85;;;6.05;;
53108;SDS011;39007;53.090;6.074;2023-08-06T12:28:06;6.47;;;2.72;;
53108;SDS011;39007;53.090;6.074;2023-08-06T12:30:33;6.38;;;2.40;;
53108;SDS011;39007;53.090;6.074;2023-08-06T12:32:59;4.13;;;2.17;;
53108;SDS011;39007;53.090;6.074;2023-08-06T12:35:25;5.47;;;2.20;;
53108;SDS011;39007;53.090;6.074;2023-08-06T12:37:51;4.90;;;2.35;;
53108;SDS011;39007;53.090;6.074;2023-08-06T12:40:20;6.05;;;2.60;;
53108;SDS011;39007;53.090;6.074;2023-08-06T12:42:46;5.88;;;2.50;;
53108;SDS011;39007;53.090;6.074;2023-08-06T12:45:12;5.05;;;2.40;;
53108;SDS011;39007;53.090;6.074;2023-08-06T12:47:39;5.38;;;2.30;;
53108;SDS011;39007;53.090;6.074;2023-08-06T12:50:05;4.30;;;2.30;;
53108;SDS011;39007;53.090;6.074;2023-08-06T12:52:31;4.93;;;2.58;;
53108;SDS011;39007;53.090;6.074;2023-08-06T12:54:57;5.70;;;2.30;;
53108;SDS011;39007;53.090;6.074;2023-08-06T12:57:23;5.43;;;2.38;;
53108;SDS011;39007;53.090;6.074;2023-08-06T12:59:50;4.32;;;2.20;;
53108;SDS011;39007;53.090;6.074;2023-08-06T13:02:16;4.97;;;2.20;;
53108;SDS011;39007;53.090;6.074;2023-08-06T13:04:42;4.35;;;2.40;;
53108;SDS011;39007;53.090;6.074;2023-08-06T13:07:08;7.22;;;2.42;;
53108;SDS011;39007;53.090;6.074;2023-08-06T13:09:34;5.35;;;2.33;;
53108;SDS011;39007;53.090;6.074;2023-08-06T13:12:00;5.68;;;2.30;;
53108;SDS011;39007;53.090;6.074;2023-08-06T13:14:30;6.00;;;2.50;;
53108;SDS011;39007;53.090;6.074;2023-08-06T13:16:57;5.53;;;2.35;;
53108;SDS011;39007;53.090;6.074;2023-08-06T13:19:23;5.80;;;2.50;;
53108;SDS011;39007;53.090;6.074;2023-08-06T13:24:15;7.00;;;2.47;;
53108;SDS011;39007;53.090;6.074;2023-08-06T13:26:41;5.13;;;2.50;;
53108;SDS011;39007;53.090;6.074;2023-08-06T13:29:07;3.92;;;2.10;;
53108;SDS011;39007;53.090;6.074;2023-08-06T13:31:33;4.57;;;2.40;;
53108;SDS011;39007;53.090;6.074;2023-08-06T13:33:59;3.70;;;2.15;;
53108;SDS011;39007;53.090;6.074;2023-08-06T13:36:28;4.65;;;2.33;;
53108;SDS011;39007;53.090;6.074;2023-08-06T13:38:54;6.03;;;2.40;;
53108;SDS011;39007;53.090;6.074;2023-08-06T13:41:21;5.05;;;2.50;;
53108;SDS011;39007;53.090;6.074;2023-08-06T13:43:47;5.95;;;2.40;;
53108;SDS011;39007;53.090;6.074;2023-08-06T13:46:13;5.28;;;2.47;;
53108;SDS011;39007;53.090;6.074;2023-08-06T13:48:43;7.03;;;2.60;;
53108;SDS011;39007;53.090;6.074;2023-08-06T13:51:10;5.65;;;2.70;;
53108;SDS011;39007;53.090;6.074;2023-08-06T13:53:36;5.25;;;2.33;;
53108;SDS011;39007;53.090;6.074;2023-08-06T13:56:03;5.93;;;2.60;;
53108;SDS011;39007;53.090;6.074;2023-08-06T13:58:29;6.05;;;2.50;;
53108;SDS011;39007;53.090;6.074;2023-08-06T14:00:55;5.82;;;2.50;;
53108;SDS011;39007;53.090;6.074;2023-08-06T14:03:22;6.47;;;2.58;;
53108;SDS011;39007;53.090;6.074;2023-08-06T14:05:49;4.78;;;2.20;;
53108;SDS011;39007;53.090;6.074;2023-08-06T14:08:15;5.50;;;3.00;;
53108;SDS011;39007;53.090;6.074;2023-08-06T14:10:43;5.50;;;2.47;;
53108;SDS011;39007;53.090;6.074;2023-08-06T14:13:09;5.90;;;2.50;;
53108;SDS011;39007;53.090;6.074;2023-08-06T14:15:36;5.97;;;2.60;;
53108;SDS011;39007;53.090;6.074;2023-08-06T14:18:04;4.13;;;2.28;;
53108;SDS011;39007;53.090;6.074;2023-08-06T14:20:30;4.68;;;2.30;;
53108;SDS011;39007;53.090;6.074;2023-08-06T14:22:57;6.90;;;2.58;;
53108;SDS011;39007;53.090;6.074;2023-08-06T14:25:23;5.47;;;2.38;;
53108;SDS011;39007;53.090;6.074;2023-08-06T14:27:49;4.57;;;2.20;;
53108;SDS011;39007;53.090;6.074;2023-08-06T14:30:15;5.57;;;2.20;;
53108;SDS011;39007;53.090;6.074;2023-08-06T14:32:41;4.60;;;2.15;;
53108;SDS011;39007;53.090;6.074;2023-08-06T14:35:07;4.47;;;2.40;;
53108;SDS011;39007;53.090;6.074;2023-08-06T14:37:33;4.63;;;2.20;;
53108;SDS011;39007;53.090;6.074;2023-08-06T14:39:59;4.82;;;2.30;;
53108;SDS011;39007;53.090;6.074;2023-08-06T14:42:25;6.15;;;2.40;;
53108;SDS011;39007;53.090;6.074;2023-08-06T14:44:51;4.28;;;2.22;;
53108;SDS011;39007;53.090;6.074;2023-08-06T14:47:17;5.85;;;2.45;;
53108;SDS011;39007;53.090;6.074;2023-08-06T14:49:43;6.35;;;2.38;;